Aviation Digital Data Service (ADDS)

Output produced by METARs form (0044 UTC 21 July 2017)
found at http://aviationweather.gov/adds/metars/
 
KBDR 210011Z 2100/2124 23008KT P6SM SCT060 SCT200 
     TEMPO 2101/2103 28012G24KT 3SM -SHRA SCT025 BKN035 
     FM210300 32005KT P6SM FEW060 
     FM211200 29008KT P6SM SKC 
     FM211500 26008KT P6SM FEW050